Strona główna
METAR-TAF:

METAR-TAF

Lotnisko :

Frederick Municipal Airport

Frederick, Maryland, Stany Zjednoczone

Szerokość geograficzna: 39-25-03N, Długość geograficzna: 077-22-28W, wysokość: 92 m

Aktualna obserwacja pogody

Raport powstał 22 minut temu, godzina 11:00 UTC
Wiatr 4 kt od północno-północny zachód
Temperatura 22°C
Wilgotność 94%
Ciśnienie 1015 hPa
Widzialność: 6.4 km
Zachmurzenie całkowite na wysokości 500 ft
zamglenie

METAR: KFDK 181100Z AUTO 34004KT 4SM BR OVC005 22/21 A2997 RMK AO2 LTG DSNT E

czas: 07:22 (11:22 UTC)


TAF: brakujący

Obserwacja i prognoza pogody dla ponad 4000 lotnisk (raport METAR i TAF).

Dostępne stacje oznaczono żółtymi i czerwonymi punktami na mapie.

Najedź kursorem aby zobaczyć nazwę stacji.

Kliknij aby zobaczyć obserwacje i prognozy pogody.

Aby zmienić mapę: kliknij na zielony przycisk z czarnym krzyżykiem, aby powiększyć; na zielony przycisk z myślnikiem, aby pomniejszyć; na zielone strzałki, aby przejść do map sąsiednich.


METAR-TAF: